createdAt,value
2023-02-06T00:00:14.679Z,102089.91
2023-02-06T00:03:17.656Z,102091.41
2023-02-06T00:06:20.302Z,102089.59
2023-02-06T00:09:23.238Z,102100.59
2023-02-06T00:12:25.880Z,102101.56
2023-02-06T00:15:29.065Z,102109.94
2023-02-06T00:18:32.246Z,102113.50
2023-02-06T00:21:35.148Z,102110.78
2023-02-06T00:24:38.948Z,102113.69
2023-02-06T00:27:41.999Z,102119.91
2023-02-06T00:30:47.606Z,102127.50
2023-02-06T00:33:50.953Z,102147.06
2023-02-06T00:36:54.440Z,102155.56
2023-02-06T00:39:58.292Z,102148.50
2023-02-06T00:43:00.953Z,102146.69
2023-02-06T00:46:03.991Z,102143.19
2023-02-06T00:49:06.591Z,102139.81
2023-02-06T00:52:09.528Z,102140.81
2023-02-06T00:55:12.526Z,102141.38
2023-02-06T00:58:15.581Z,102132.00
2023-02-06T01:01:19.244Z,102129.69
2023-02-06T01:04:22.524Z,102115.19
2023-02-06T01:07:25.145Z,102122.84
2023-02-06T01:10:29.132Z,102119.31
2023-02-06T01:13:31.819Z,102125.22
2023-02-06T01:16:35.108Z,102133.38
2023-02-06T01:19:38.313Z,102138.97
2023-02-06T01:22:41.524Z,102139.94
2023-02-06T01:25:44.469Z,102135.28
2023-02-06T01:28:48.289Z,102142.09
2023-02-06T01:31:50.894Z,102155.03
2023-02-06T01:34:53.780Z,102146.34
2023-02-06T01:37:56.414Z,102146.41
2023-02-06T01:41:01.088Z,102152.41
2023-02-06T01:44:12.885Z,102144.66
2023-02-06T01:47:15.929Z,102155.84
2023-02-06T01:50:19.288Z,102155.16
2023-02-06T01:53:24.167Z,102140.31
2023-02-06T01:56:30.532Z,102135.50
2023-02-06T01:59:35.035Z,102136.47
2023-02-06T02:02:43.051Z,102130.53
2023-02-06T02:05:48.268Z,102127.19
2023-02-06T02:08:54.247Z,102126.44
2023-02-06T02:11:57.451Z,102119.59
2023-02-06T02:15:00.219Z,102120.12
2023-02-06T02:18:27.476Z,102108.69
2023-02-06T02:21:40.973Z,102103.34
2023-02-06T02:25:16.449Z,102104.81
2023-02-06T02:28:56.131Z,102115.03
2023-02-06T02:32:30.169Z,102108.13
2023-02-06T02:36:12.661Z,102115.78
2023-02-06T02:39:29.666Z,102116.62
2023-02-06T02:42:41.330Z,102123.47
2023-02-06T02:45:55.845Z,102120.03
2023-02-06T02:49:05.978Z,102118.31
2023-02-06T02:52:09.074Z,102123.16
2023-02-06T02:55:22.306Z,102128.09
2023-02-06T02:58:34.705Z,102125.22
2023-02-06T03:01:46.957Z,102121.69
2023-02-06T03:05:00.149Z,102137.06
2023-02-06T03:08:25.791Z,102130.91
2023-02-06T03:11:30.175Z,102124.91
2023-02-06T03:14:40.265Z,102126.78
2023-02-06T03:18:02.729Z,102128.22
2023-02-06T03:21:08.474Z,102131.63
2023-02-06T03:24:24.486Z,102133.22
2023-02-06T03:27:29.829Z,102139.06
2023-02-06T03:30:34.506Z,102143.41
2023-02-06T03:33:44.540Z,102135.72
2023-02-06T03:36:48.580Z,102140.31
2023-02-06T03:39:51.504Z,102141.22
2023-02-06T03:42:58.501Z,102139.06
2023-02-06T03:46:05.623Z,102128.91
2023-02-06T03:49:11.692Z,102134.16
2023-02-06T03:52:20.989Z,102139.50
2023-02-06T03:55:24.922Z,102143.56
2023-02-06T03:58:27.720Z,102158.94
2023-02-06T04:01:31.192Z,102142.66
2023-02-06T04:04:39.941Z,102150.56
2023-02-06T04:07:42.601Z,102148.81
2023-02-06T04:10:45.685Z,102143.69
2023-02-06T04:13:48.267Z,102136.75
2023-02-06T04:16:51.485Z,102135.75
2023-02-06T04:19:54.276Z,102139.31
2023-02-06T04:23:00.200Z,102131.63
2023-02-06T04:26:02.884Z,102129.91
2023-02-06T04:29:05.822Z,102134.16
2023-02-06T04:32:09.091Z,102135.16
2023-02-06T04:35:12.506Z,102137.59
2023-02-06T04:38:15.425Z,102142.09
2023-02-06T04:41:18.526Z,102134.38
2023-02-06T04:44:21.763Z,102139.53
2023-02-06T04:47:24.600Z,102142.09
2023-02-06T04:50:31.324Z,102135.16
2023-02-06T04:53:34.954Z,102148.03
2023-02-06T04:56:37.511Z,102141.22
2023-02-06T04:59:41.333Z,102146.28
2023-02-06T05:02:44.887Z,102144.63
2023-02-06T05:05:47.837Z,102154.06
2023-02-06T05:08:50.917Z,102148.84
2023-02-06T05:11:53.832Z,102157.62
2023-02-06T05:14:56.577Z,102155.16
2023-02-06T05:17:59.462Z,102157.88
2023-02-06T05:21:02.911Z,102157.88
2023-02-06T05:24:06.700Z,102158.63
2023-02-06T05:27:09.293Z,102167.06
2023-02-06T05:30:14.171Z,102166.38
2023-02-06T05:33:17.012Z,102162.97
2023-02-06T05:36:20.594Z,102161.09
2023-02-06T05:39:24.427Z,102166.78
2023-02-06T05:42:27.399Z,102164.28
2023-02-06T05:45:30.075Z,102169.72
2023-02-06T05:48:34.883Z,102169.03
2023-02-06T05:51:38.259Z,102169.03
2023-02-06T05:54:41.150Z,102171.69
2023-02-06T05:57:44.857Z,102164.09
2023-02-06T06:00:50.774Z,102178.09
2023-02-06T06:03:53.714Z,102176.41
2023-02-06T06:06:57.196Z,102168.91
2023-02-06T06:10:00.309Z,102163.09
2023-02-06T06:13:03.201Z,102167.22
2023-02-06T06:16:09.269Z,102172.97
2023-02-06T06:19:15.956Z,102166.00
2023-02-06T06:22:20.065Z,102172.28
2023-02-06T06:25:22.823Z,102161.03
2023-02-06T06:28:25.963Z,102166.72
2023-02-06T06:31:31.044Z,102166.06
2023-02-06T06:34:34.148Z,102167.47
2023-02-06T06:37:37.057Z,102154.28
2023-02-06T06:40:41.186Z,102163.50
2023-02-06T06:43:44.223Z,102166.25
2023-02-06T06:46:47.210Z,102169.78
2023-02-06T06:49:49.861Z,102170.75
2023-02-06T06:52:53.183Z,102165.37
2023-02-06T06:55:55.888Z,102165.37
2023-02-06T06:58:59.987Z,102164.12
2023-02-06T07:02:03.143Z,102161.03
2023-02-06T07:05:09.402Z,102165.69
2023-02-06T07:08:13.496Z,102164.56
2023-02-06T07:11:18.856Z,102162.00
2023-02-06T07:14:24.303Z,102167.00
2023-02-06T07:17:27.940Z,102169.37
2023-02-06T07:20:31.338Z,102176.16
2023-02-06T07:23:38.830Z,102168.25
2023-02-06T07:26:41.664Z,102178.25
2023-02-06T07:29:44.860Z,102172.37
2023-02-06T07:32:47.973Z,102180.41
2023-02-06T07:35:50.893Z,102171.91
2023-02-06T07:38:54.225Z,102180.53
2023-02-06T07:41:57.519Z,102176.13
2023-02-06T07:45:06.142Z,102174.50
2023-02-06T07:48:10.897Z,102176.22
2023-02-06T07:51:14.309Z,102177.78
2023-02-06T07:54:19.394Z,102183.88
2023-02-06T07:57:23.948Z,102181.28
2023-02-06T08:00:28.597Z,102165.81
2023-02-06T08:03:32.200Z,102177.09
2023-02-06T08:06:35.183Z,102174.47
2023-02-06T08:09:38.441Z,102174.47
2023-02-06T08:12:41.041Z,102166.47
2023-02-06T08:15:45.142Z,102170.53
2023-02-06T08:18:51.330Z,102166.97
2023-02-06T08:21:54.278Z,102178.06
2023-02-06T08:24:57.217Z,102167.97
2023-02-06T08:28:00.322Z,102174.06
2023-02-06T08:31:14.215Z,102176.31
2023-02-06T08:34:17.545Z,102169.47
2023-02-06T08:37:20.284Z,102178.41
2023-02-06T08:40:25.760Z,102173.72
2023-02-06T08:43:28.450Z,102175.41
2023-02-06T08:46:33.535Z,102166.72
2023-02-06T08:49:36.307Z,102167.34
2023-02-06T08:52:40.327Z,102167.16
2023-02-06T08:55:43.326Z,102174.38
2023-02-06T08:58:46.693Z,102164.16
2023-02-06T09:01:52.226Z,102162.59
2023-02-06T09:04:55.500Z,102161.75
2023-02-06T09:08:00.786Z,102166.19
2023-02-06T09:11:13.410Z,102159.97
2023-02-06T09:14:17.852Z,102156.31
2023-02-06T09:17:25.062Z,102161.91
2023-02-06T09:20:27.789Z,102164.09
2023-02-06T09:23:36.168Z,102165.19
2023-02-06T09:26:58.643Z,102172.03
2023-02-06T09:30:05.496Z,102171.94
2023-02-06T09:33:11.270Z,102173.22
2023-02-06T09:36:17.704Z,102170.09
2023-02-06T09:39:20.626Z,102173.47
2023-02-06T09:42:36.803Z,102175.09
2023-02-06T09:45:41.786Z,102171.56
2023-02-06T09:48:49.190Z,102175.53
2023-02-06T09:52:10.368Z,102172.97
2023-02-06T09:55:26.027Z,102165.13
2023-02-06T09:58:40.554Z,102161.16
2023-02-06T10:02:00.803Z,102155.25
2023-02-06T10:05:31.238Z,102153.19
2023-02-06T10:10:31.909Z,102150.19
2023-02-06T10:13:49.861Z,102153.19
2023-02-06T10:17:04.025Z,102153.09
2023-02-06T10:20:18.871Z,102141.16
2023-02-06T10:23:37.532Z,102137.72
2023-02-06T10:26:41.012Z,102129.00
2023-02-06T10:29:46.890Z,102137.09
2023-02-06T10:33:14.371Z,102128.59
2023-02-06T10:36:34.476Z,102128.19
2023-02-06T10:39:56.107Z,102127.34
2023-02-06T10:43:25.127Z,102115.81
2023-02-06T10:46:46.136Z,102120.34
2023-02-06T10:49:56.098Z,102115.53
2023-02-06T10:53:13.555Z,102112.78
2023-02-06T10:56:21.147Z,102108.56
2023-02-06T10:59:34.357Z,102100.66
2023-02-06T11:02:42.588Z,102093.88
2023-02-06T11:05:48.130Z,102099.16
2023-02-06T11:09:02.423Z,102094.28
2023-02-06T11:12:12.367Z,102095.34
2023-02-06T11:15:23.293Z,102086.34
2023-02-06T11:18:46.503Z,102081.47
2023-02-06T11:22:11.910Z,102078.50
2023-02-06T11:25:25.489Z,102080.00
2023-02-06T11:28:30.572Z,102074.78
2023-02-06T11:31:44.184Z,102068.09
2023-02-06T11:34:57.166Z,102065.56
2023-02-06T11:38:16.808Z,102058.22
2023-02-06T11:41:19.512Z,102058.22
2023-02-06T11:44:25.375Z,102060.06
2023-02-06T11:47:32.496Z,102048.62
2023-02-06T11:50:37.612Z,102045.38
2023-02-06T11:53:58.261Z,102045.97
2023-02-06T11:57:23.121Z,102039.19
2023-02-06T12:00:25.863Z,102034.50
2023-02-06T12:03:51.294Z,102030.13
2023-02-06T12:07:01.100Z,102023.13
2023-02-06T12:10:15.995Z,102031.28
2023-02-06T12:13:25.625Z,102024.03
2023-02-06T12:16:37.045Z,102030.81
2023-02-06T12:19:51.369Z,102017.28
2023-02-06T12:22:59.052Z,102012.72
2023-02-06T12:26:07.643Z,102008.38
2023-02-06T12:29:27.037Z,102010.38
2023-02-06T12:32:38.559Z,102010.28
2023-02-06T12:35:53.800Z,102013.69
2023-02-06T12:39:07.457Z,102000.25
2023-02-06T12:42:32.564Z,102006.53
2023-02-06T12:46:08.386Z,101999.69
2023-02-06T12:49:48.904Z,101996.34
2023-02-06T12:53:12.221Z,101996.16
2023-02-06T12:56:30.434Z,101994.09
2023-02-06T12:59:57.923Z,101992.44
2023-02-06T13:03:22.920Z,102000.66
2023-02-06T13:06:29.028Z,101992.81
2023-02-06T13:10:14.558Z,101986.94
2023-02-06T13:13:30.122Z,101993.03
2023-02-06T13:16:45.408Z,101988.66
2023-02-06T13:20:12.785Z,101995.38
2023-02-06T13:23:16.571Z,101987.56
2023-02-06T13:26:19.320Z,101991.62
2023-02-06T13:29:30.413Z,101990.47
2023-02-06T13:32:42.132Z,101989.06
2023-02-06T13:36:00.630Z,101985.50
2023-02-06T13:39:14.828Z,101977.09
2023-02-06T13:42:41.026Z,101988.81
2023-02-06T13:46:06.859Z,101988.84
2023-02-06T13:49:25.573Z,101986.06
2023-02-06T13:52:39.371Z,101993.59
2023-02-06T13:55:54.436Z,101989.41
2023-02-06T13:59:05.990Z,101995.16
2023-02-06T14:02:33.878Z,102006.37
2023-02-06T14:05:44.131Z,102003.00
2023-02-06T14:09:12.146Z,102001.84
2023-02-06T14:12:44.509Z,102015.25
2023-02-06T14:15:56.351Z,102018.94
2023-02-06T14:19:11.600Z,102017.03
2023-02-06T14:22:14.137Z,102018.00
2023-02-06T14:25:25.611Z,102019.78
2023-02-06T14:29:06.193Z,102025.16
2023-02-06T14:32:35.941Z,102026.78
2023-02-06T14:35:57.052Z,102026.09
2023-02-06T14:39:20.318Z,102020.91
2023-02-06T14:42:32.938Z,102024.34
2023-02-06T14:45:42.029Z,102022.50
2023-02-06T14:48:56.086Z,102027.78
2023-02-06T14:52:00.023Z,102024.47
2023-02-06T14:55:32.792Z,102034.53
2023-02-06T14:58:36.153Z,102034.69
2023-02-06T15:01:39.688Z,102033.13
2023-02-06T15:04:50.001Z,102032.28
2023-02-06T15:08:02.264Z,102029.72
2023-02-06T15:11:16.920Z,102045.41
2023-02-06T15:14:27.251Z,102044.38
2023-02-06T15:17:31.584Z,102049.59
2023-02-06T15:20:41.346Z,102044.41
2023-02-06T15:24:24.425Z,102048.84
2023-02-06T15:27:27.367Z,102059.25
2023-02-06T15:30:37.558Z,102058.41
2023-02-06T15:33:41.336Z,102053.25
2023-02-06T15:36:44.759Z,102057.63
2023-02-06T15:39:47.747Z,102056.78
2023-02-06T15:42:51.461Z,102055.91
2023-02-06T15:45:56.905Z,102063.72
2023-02-06T15:49:00.015Z,102069.81
2023-02-06T15:52:03.810Z,102068.09
2023-02-06T15:55:06.977Z,102068.13
2023-02-06T15:58:15.390Z,102073.31
2023-02-06T16:01:20.249Z,102078.50
2023-02-06T16:04:24.281Z,102080.25
2023-02-06T16:07:38.313Z,102083.72
2023-02-06T16:10:41.911Z,102087.19
2023-02-06T16:13:45.950Z,102094.97
2023-02-06T16:17:01.745Z,102090.66
2023-02-06T16:20:24.279Z,102097.53
2023-02-06T16:23:31.019Z,102102.72
2023-02-06T16:26:48.167Z,102105.31
2023-02-06T16:29:55.942Z,102109.62
2023-02-06T16:33:11.821Z,102112.25
2023-02-06T16:36:17.340Z,102111.34
2023-02-06T16:39:21.474Z,102107.91
2023-02-06T16:42:35.218Z,102104.44
2023-02-06T16:45:38.146Z,102110.50
2023-02-06T16:48:41.554Z,102116.53
2023-02-06T16:51:47.013Z,102115.66
2023-02-06T16:54:51.036Z,102116.50
2023-02-06T16:57:58.718Z,102119.97
2023-02-06T17:01:08.615Z,102119.94
2023-02-06T17:04:14.808Z,102130.31
2023-02-06T17:07:21.800Z,102122.47
2023-02-06T17:10:42.638Z,102115.53
2023-02-06T17:13:45.932Z,102125.06
2023-02-06T17:16:48.474Z,102118.13
2023-02-06T17:19:52.333Z,102117.31
2023-02-06T17:22:55.115Z,102114.72
2023-02-06T17:25:58.200Z,102116.56
2023-02-06T17:29:01.152Z,102113.91
2023-02-06T17:32:06.932Z,102119.03
2023-02-06T17:35:09.709Z,102125.88
2023-02-06T17:38:12.838Z,102121.59
2023-02-06T17:41:15.458Z,102128.44
2023-02-06T17:44:18.838Z,102121.59
2023-02-06T17:47:21.638Z,102125.00
2023-02-06T17:50:28.887Z,102123.25
2023-02-06T17:53:31.717Z,102138.75
2023-02-06T17:56:35.234Z,102132.72
2023-02-06T17:59:38.137Z,102137.03
2023-02-06T18:02:41.458Z,102125.78
2023-02-06T18:05:47.118Z,102137.81
2023-02-06T18:08:50.181Z,102138.72
2023-02-06T18:11:53.194Z,102142.13
2023-02-06T18:14:57.442Z,102151.59
2023-02-06T18:18:01.858Z,102149.00
2023-02-06T18:21:05.040Z,102159.31
2023-02-06T18:24:08.152Z,102159.25
2023-02-06T18:27:11.800Z,102160.06
2023-02-06T18:30:15.352Z,102161.81
2023-02-06T18:33:21.960Z,102163.53
2023-02-06T18:36:25.376Z,102159.25
2023-02-06T18:39:28.498Z,102164.41
2023-02-06T18:42:50.600Z,102159.13
2023-02-06T18:45:53.397Z,102167.69
2023-02-06T18:48:57.266Z,102165.06
2023-02-06T18:52:00.194Z,102170.19
2023-02-06T18:55:04.239Z,102157.12
2023-02-06T18:58:07.104Z,102161.50
2023-02-06T19:01:20.310Z,102169.16
2023-02-06T19:04:23.701Z,102182.91
2023-02-06T19:07:28.052Z,102178.66
2023-02-06T19:10:34.277Z,102184.66
2023-02-06T19:13:40.836Z,102184.72
2023-02-06T19:16:48.090Z,102181.22
2023-02-06T19:19:52.006Z,102189.75
2023-02-06T19:22:56.804Z,102190.25
2023-02-06T19:25:59.942Z,102193.59
2023-02-06T19:29:02.958Z,102203.06
2023-02-06T19:32:07.784Z,102197.16
2023-02-06T19:35:12.059Z,102200.34
2023-02-06T19:38:15.224Z,102202.94
2023-02-06T19:41:20.689Z,102209.91
2023-02-06T19:44:23.491Z,102214.13
2023-02-06T19:47:30.427Z,102215.84
2023-02-06T19:50:35.179Z,102215.09
2023-02-06T19:53:45.364Z,102221.91
2023-02-06T19:56:48.637Z,102225.34
2023-02-06T19:59:51.565Z,102221.53
2023-02-06T20:02:54.501Z,102219.94
2023-02-06T20:06:01.613Z,102229.50
2023-02-06T20:09:05.124Z,102231.28
2023-02-06T20:12:11.483Z,102230.31
2023-02-06T20:15:15.182Z,102235.41
2023-02-06T20:18:18.162Z,102235.47
2023-02-06T20:21:24.221Z,102245.56
2023-02-06T20:24:30.318Z,102249.72
2023-02-06T20:27:36.582Z,102252.53
2023-02-06T20:30:40.105Z,102247.22
2023-02-06T20:33:45.840Z,102255.69
2023-02-06T20:36:50.229Z,102252.22
2023-02-06T20:39:52.906Z,102254.06
2023-02-06T20:42:56.264Z,102253.34
2023-02-06T20:45:59.115Z,102254.19
2023-02-06T20:49:06.521Z,102258.25
2023-02-06T20:52:09.237Z,102258.31
2023-02-06T20:55:13.113Z,102266.06
2023-02-06T20:58:15.940Z,102266.97
2023-02-06T21:01:25.112Z,102267.75
2023-02-06T21:04:33.165Z,102267.69
2023-02-06T21:07:37.840Z,102272.03
2023-02-06T21:10:41.171Z,102270.19
2023-02-06T21:13:44.701Z,102276.22
2023-02-06T21:16:48.127Z,102279.75
2023-02-06T21:19:51.198Z,102289.31
2023-02-06T21:22:55.124Z,102290.13
2023-02-06T21:25:57.966Z,102298.75
2023-02-06T21:29:02.485Z,102295.25
2023-02-06T21:32:13.759Z,102288.41
2023-02-06T21:35:16.946Z,102286.53
2023-02-06T21:38:20.330Z,102276.88
2023-02-06T21:41:22.869Z,102284.75
2023-02-06T21:44:26.497Z,102277.78
2023-02-06T21:47:29.145Z,102279.38
2023-02-06T21:50:32.377Z,102282.72
2023-02-06T21:53:35.520Z,102281.75
2023-02-06T21:56:39.064Z,102291.37
2023-02-06T21:59:42.107Z,102289.69
2023-02-06T22:02:45.156Z,102287.50
2023-02-06T22:05:48.003Z,102291.91
2023-02-06T22:08:53.067Z,102293.63
2023-02-06T22:11:56.011Z,102292.81
2023-02-06T22:14:59.489Z,102298.00
2023-02-06T22:18:04.448Z,102302.16
2023-02-06T22:21:13.099Z,102300.50
2023-02-06T22:24:16.582Z,102306.47
2023-02-06T22:27:19.338Z,102307.31
2023-02-06T22:30:23.084Z,102308.97
2023-02-06T22:33:28.766Z,102310.56
2023-02-06T22:36:33.090Z,102313.19
2023-02-06T22:39:36.057Z,102313.00
2023-02-06T22:42:39.197Z,102314.87
2023-02-06T22:45:42.601Z,102323.31
2023-02-06T22:48:46.321Z,102317.28
2023-02-06T22:51:51.516Z,102319.88
2023-02-06T22:54:54.415Z,102318.06
2023-02-06T22:57:57.093Z,102317.84
2023-02-06T23:01:03.697Z,102313.28
2023-02-06T23:04:08.935Z,102310.69
2023-02-06T23:07:11.822Z,102314.16
2023-02-06T23:10:14.926Z,102311.81
2023-02-06T23:13:17.797Z,102316.31
2023-02-06T23:16:21.155Z,102312.81
2023-02-06T23:19:24.564Z,102304.00
2023-02-06T23:22:27.263Z,102308.72
2023-02-06T23:25:30.521Z,102314.00
2023-02-06T23:28:33.934Z,102315.41
2023-02-06T23:31:37.302Z,102311.81
2023-02-06T23:34:40.384Z,102331.53
2023-02-06T23:37:43.234Z,102331.09
2023-02-06T23:40:46.258Z,102323.25
2023-02-06T23:43:54.778Z,102326.56
2023-02-06T23:46:57.391Z,102327.25
2023-02-06T23:50:02.231Z,102323.25
2023-02-06T23:53:04.933Z,102325.16
2023-02-06T23:56:12.912Z,102320.12
2023-02-06T23:59:15.546Z,102315.63
